KGEY/GEY METAR and TAF weather

Enter ICAO airport designator
Station Type Date Time Source
KGEY METAR 2019/08/18 08:53 UTC NOAA

KGEY 180853Z AUTO 17003KT 10SM CLR 12/07 A2993 RMK AO2 SLP107 T01220072 55000 $


Station Type Date Time Source
KGEY Decoded METAR 2019/08/18 08:53 UTC NOAA

Station name not available
Aug 18, 2019 - 04:53 AM EDT / 2019.08.18 0853 UTC
Wind: from the S (170 degrees) at 3 MPH (3 KT):0
Visibility: 10 mile(s):0
Sky conditions: clear
Temperature: 54.0 F (12.2 C)
Dew Point: 45.0 F (7.2 C)
Relative Humidity: 71%
Pressure (altimeter): 29.93 in. Hg (1013 hPa)
Pressure tendency: 0.00 inches (0.0 hPa) lower than three hours ago
ob: KGEY 180853Z AUTO 17003KT 10SM CLR 12/07 A2993 RMK AO2 SLP107 T01220072 55000
cycle: 9

Station Type Date Time Source
KGEY TAF UTC NOAA

Error!

Example: see airport list